Wellston, MI (49689)

6:19 AM EDT on October 23, 2014 (GMT -0400)
Manistee County-Blacker | Change Station
CLOSE
Current Station
Airport
Location: Manistee,
Elevation: 620 ft
Nearby Weather Stations

Elev 620 ft 44.27 °N, 86.25 °W | Updated 4 minutes ago

Partly Cloudy
Partly Cloudy
28 °F
Feels Like 23 °F
N
5
Wind Variable Wind from East

Today
High -- | Low -- °F
--% Chance of Precip.
Yesterday
High -- | Low -- °F
Precip. -- in
8:08 AM 6:46 PM
Waning Crescent, 0% visible
Pressure 30.24 in
Visibility 5.0 miles
Clouds Clear
Windchill 23 °F
Dew Point 27 °F
Humidity 93%
Rainfall 0.00 in
Snow Depth Not available.
UV 0 out of 12
Pollen .30 out of 12
Ozone Good
PM2.5 Good
Flu Activity Sporadic
METAR KMBL 231015Z AUTO 09004KT 5SM CLR M02/M03 A3024 RMK AO1

More Conditions Fewer Conditions

Pressure 30.24 in
Visibility 5.0 miles
Clouds Clear
Windchill 23 °F
Dew Point 27 °F
Humidity 93%
Rainfall 0.00 in
Snow Depth Not available.
UV 0 out of 12
Pollen .30 out of 12
Ozone Good
PM2.5 Good
Flu Activity Sporadic
METAR KMBL 231015Z AUTO 09004KT 5SM CLR M02/M03 A3024 RMK AO1

More Conditions Fewer Conditions

Nowcast | as of 6:00 am EDT on October 23, 2014

At 7 am...clear. Patchy fog. Temperature 29. Light winds. At 9 am...mostly clear. Temperature 35. South winds 5 mph. At 11 am...mostly clear. Temperature 43. South winds 6 mph. At 1 PM...partly cloudy. Temperature 50. South winds 8 mph.

×

10-Day Weather Forecast

Almanac

Astronomy

Oct. 23, 2014 Rise Set
Actual Time 8:08 AM EDT 6:46 PM EDT
Civil Twilight 7:39 AM EDT 7:16 PM EDT
Nautical Twilight 7:05 AM EDT 7:49 PM EDT
Astronomical Twilight 6:31 AM EDT 8:23 PM EDT
Moon 7:47 AM EDT 6:47 PM EDT
Length of Visible Light 11h 37m
Length of Day
10h 37m
Tomorrow will be 2m 52s shorter.
Waning Crescent, 0% of the Moon is Illuminated
Today
Waning Crescent
Oct 23
New
Oct 30
First Quarter
Nov 6
Full
Nov 14
Last Quarter

Today's Extremes

State Highs State Lows

Community

WunderPhotos

Upload Photos

1,764,202 photos uploaded!

Nearby

Air Quality

  Air Quality AQ Index Pollutant
Yesterday Good
OZONE
Yesterday Good
PM2.5
Current Good
PM2.5
Current Good
OZONE
Thursday Good
PM2.5
Friday Good
PM2.5
Saturday Good
PM2.5
Sunday Good
PM2.5
Monday Good
PM2.5

Snow Depth

Station Depth Elevation
No new snow has been reported.

Earthquake Activity

City Distance Mag. Time & Date
No recent earthquake activity has been reported nearby.
Minimum magnitude displayed is 2.5.

Coastal Water Temperatures

Place Temperature
No Stations Reporting

Nearby Weather Stations